Date,TemperatureHighF,TemperatureAvgF,TemperatureLowF,DewpointHighF,DewpointAvgF,DewpointLowF,HumidityHigh,HumidityAvg,HumidityLow,PressureMaxIn,PressureMinIn,WindSpeedMaxMPH,WindSpeedAvgMPH,GustSpeedMaxMPH,PrecipitationSumIn
2012-5-21,59,58,57,58,58,57,98,97,97,29.77,29.71,2,0,2,0.04
2012-5-22,60,59,57,60,58,4,98,97,96,29.71,29.45,4,1,4,0.61
2012-5-23,79,66,58,66,61,-47,99,84,61,29.72,29.51,4,2,4,0.00
2012-5-24,78,66,58,65,60,56,98,82,60,30.25,29.72,8,2,8,0.00
2012-5-25,79,66,58,69,62,56,97,87,63,29.92,29.77,6,2,6,0.00
2012-5-26,77,71,63,70,67,62,98,87,76,30.08,29.65,6,2,6,0.00
2012-5-27,75,67,61,64,59,54,97,77,53,30.11,29.67,5,2,5,0.00
2012-5-28,66,63,59,64,60,57,97,91,82,29.67,29.59,4,1,4,0.00
2012-5-29,86,68,58,72,63,56,98,85,55,29.88,29.35,11,2,11,0.00
2012-5-30,78,70,49,69,64,41,96,84,63,29.72,29.32,4,0,4,0.00
2012-5-31,85,70,59,67,58,51,97,69,33,29.87,29.34,6,1,6,0.00
2012-6-1,72,63,57,60,53,47,95,73,49,30.10,29.51,8,2,8,0.00
2012-6-2,65,58,37,63,56,36,98,93,86,29.84,29.35,12,3,12,0.83
2012-6-3,65,58,52,62,55,50,98,89,79,29.81,29.25,8,2,8,0.05
2012-6-4,53,51,50,51,50,21,96,94,90,29.40,29.18,9,3,9,0.14
2012-6-5,55,52,48,50,48,46,94,86,78,29.93,29.39,6,1,6,0.01
2012-6-6,66,57,45,55,50,44,96,80,55,30.01,29.57,6,1,6,0.00
2012-6-7,72,58,50,60,54,48,96,88,64,29.97,29.56,4,0,4,0.06
2012-6-8,80,64,52,63,57,51,97,80,48,29.58,29.41,8,2,8,0.00
2012-6-9,85,69,58,58,53,44,89,61,29,29.58,29.41,8,1,8,0.01
2012-6-10,82,67,55,59,54,43,92,65,28,29.88,29.57,6,1,6,0.00
2012-6-11,76,64,50,59,53,48,94,70,48,30.29,29.87,8,2,8,0.00
2012-6-12,68,62,60,60,56,52,90,82,73,29.87,29.64,5,1,5,0.00
2012-6-13,65,62,59,63,60,57,96,94,85,30.22,29.58,4,1,4,0.56
2012-6-14,71,61,52,60,56,50,98,85,58,30.56,30.06,6,1,6,0.01
2012-6-15,72,61,51,61,55,49,93,80,61,30.64,30.18,7,2,7,0.00
2012-6-16,67,60,54,58,55,2,94,84,72,30.67,30.23,7,2,7,0.00
2012-6-17,72,61,5,58,52,-12,88,74,52,30.59,30.10,7,2,7,0.00
2012-6-18,70,59,46,59,53,-7,94,83,67,30.14,30.09,5,1,5,0.00
2012-6-19,78,66,50,63,58,48,95,79,58,30.45,30.01,8,2,8,0.00
2012-6-20,99,79,63,77,70,-3,93,77,38,30.32,29.79,9,2,9,0.00
2012-6-21,98,82,72,74,71,68,92,71,40,30.16,29.67,6,1,6,0.00
2012-6-22,97,80,69,74,69,32,96,74,39,30.05,29.63,16,1,16,0.32
2012-6-23,88,73,61,71,66,-21,96,81,50,30.23,29.70,8,1,8,0.40
2012-6-24,87,72,60,67,59,48,97,67,31,30.25,29.83,4,1,4,0.00
2012-6-25,76,68,65,66,64,14,96,87,65,29.84,29.57,10,2,10,0.63
2012-6-26,77,64,58,65,61,57,97,90,63,29.60,29.49,6,1,6,0.73
2012-6-27,73,63,55,62,58,53,96,85,63,29.69,29.54,6,0,6,0.00
2012-6-28,87,71,62,66,61,57,88,72,39,29.71,29.64,6,1,6,0.00
2012-6-29,87,74,66,73,68,63,93,82,54,29.68,29.50,7,2,7,0.08
2012-6-30,95,80,64,69,63,52,88,61,24,29.68,29.57,8,2,8,0.00
2012-7-1,92,78,68,73,68,65,91,75,44,29.76,29.67,7,1,7,0.02
2012-7-2,86,74,64,69,65,60,95,75,45,29.83,29.74,4,1,4,0.04
2012-7-3,86,74,64,65,61,56,93,67,37,29.88,29.81,5,1,5,0.00
2012-7-4,89,75,69,74,70,65,94,85,57,29.82,29.62,8,2,8,0.18
2012-7-5,84,72,66,70,67,63,97,85,56,29.80,29.59,4,1,4,0.00
2012-7-6,86,75,52,69,65,51,94,74,53,30.23,29.67,4,1,4,0.00
2012-7-7,84,75,50,77,69,48,95,82,68,30.15,29.65,4,0,4,2.41
2012-7-8,90,77,68,70,66,64,87,72,42,29.81,29.70,4,1,4,0.00
2012-7-9,86,74,63,67,58,51,84,60,34,30.30,29.81,4,1,4,0.00
2012-7-10,86,72,62,65,59,49,93,67,30,30.07,29.94,4,1,4,0.00
2012-7-11,87,74,64,70,65,59,95,75,44,30.16,30.06,4,1,4,0.00
2012-7-12,90,75,63,69,62,54,96,67,31,30.17,30.08,6,2,6,0.00
2012-7-13,86,76,67,70,63,53,92,65,32,30.16,30.09,5,2,5,0.00
2012-7-14,96,79,69,70,67,64,92,67,39,30.10,30.01,4,1,4,0.00
2012-7-15,94,80,69,74,69,63,85,70,48,30.05,29.87,6,2,6,0.00
2012-7-16,88,79,73,73,71,68,93,79,58,29.84,29.69,5,1,5,0.00
2012-7-17,97,80,71,74,70,65,93,73,42,29.74,29.64,10,2,10,0.00
2012-7-18,92,84,78,76,72,67,80,67,52,29.76,29.65,5,2,5,0.00
2012-7-19,81,70,62,71,64,58,98,82,57,29.95,29.81,4,1,4,0.21
2012-7-20,72,67,61,64,62,58,93,82,66,30.05,29.97,4,0,4,0.00
2012-7-21,82,67,56,64,59,55,96,77,47,30.09,30.01,4,1,4,0.00
2012-7-22,87,72,58,65,60,56,96,70,40,30.12,30.07,7,2,7,0.00
2012-7-23,68,66,66,64,62,61,89,87,84,30.09,30.05,2,1,2,0.00
2012-7-24,92,84,72,76,74,70,97,75,50,29.58,29.45,6,2,6,0.46
2012-7-27,74,69,64,69,66,62,95,89,82,29.86,29.69,3,1,3,0.02
2012-7-28,81,69,63,70,66,62,98,92,71,29.95,29.86,4,1,4,0.35
2012-7-29,74,67,65,69,66,63,99,95,85,30.01,29.86,4,1,4,0.02
2012-7-30,83,73,63,68,65,61,98,77,51,30.09,30.01,6,2,6,0.02
2012-7-31,79,71,64,68,67,61,99,88,69,30.09,29.82,7,2,7,1.24
2012-8-1,87,74,67,73,68,66,99,84,60,29.90,29.82,9,1,9,1.25
2012-8-2,91,77,68,74,71,66,98,83,51,29.86,29.78,8,2,8,0.00
2012-8-3,92,82,73,77,74,71,97,80,60,30.04,29.85,7,2,7,0.00
2012-8-4,94,81,73,79,74,71,97,82,57,30.18,30.05,8,2,8,0.00
2012-8-5,90,82,76,78,76,74,94,81,65,30.18,29.91,11,4,11,0.00
2012-8-6,92,79,66,75,66,54,94,68,31,29.93,29.86,6,1,8,0.00
2012-8-7,84,72,61,67,64,59,95,76,52,29.99,29.92,8,1,8,0.00
2012-8-8,89,77,66,73,69,64,97,79,58,29.96,29.90,5,1,5,0.00
2012-8-9,93,79,69,74,71,67,98,78,49,29.94,29.85,7,2,7,0.00
2012-8-10,87,76,70,76,73,69,99,89,69,29.90,29.74,12,2,12,0.46
2012-8-11,87,77,72,77,74,72,99,91,69,29.90,29.77,12,2,12,0.72
2012-8-12,86,77,72,75,73,71,98,88,64,29.90,29.83,11,2,11,0.08
2012-8-13,89,77,69,72,70,67,99,79,54,29.90,29.84,7,1,7,0.00
2012-8-14,87,75,65,71,67,63,95,77,53,29.92,29.85,5,1,5,0.00
2012-8-15,80,73,67,73,70,66,98,92,77,29.89,29.79,9,0,9,0.27
2012-8-16,84,72,65,70,68,65,99,88,60,29.80,29.74,4,0,4,0.01
2012-8-17,90,77,65,71,67,61,94,74,41,29.81,29.73,9,2,9,0.00
2012-8-18,74,68,67,70,66,64,97,93,88,29.85,29.76,2,0,2,0.12
2012-8-19,67,67,67,65,65,65,92,92,92,29.84,29.84,0,0,0,0.12
2012-8-20,67,67,67,65,65,65,92,92,92,29.84,29.84,0,0,0,0.12
2012-8-21,92,75,68,74,69,67,98,83,50,29.91,29.85,5,1,5,0.00
2012-8-22,90,77,70,76,72,67,98,85,49,29.87,29.82,8,2,8,0.00
2012-8-23,86,75,70,77,74,69,99,95,70,29.85,29.71,7,2,7,1.18
2012-8-24,86,77,72,75,73,71,98,89,67,29.87,29.81,12,2,12,0.08
2012-8-25,84,74,67,74,66,61,95,79,52,30.27,29.79,7,2,7,0.58
2012-8-26,82,70,60,67,62,59,98,79,49,30.28,30.18,5,1,5,0.00
2012-8-27,85,73,56,72,67,55,98,83,59,30.19,29.87,9,2,9,0.00
2012-8-28,79,74,67,74,71,66,98,92,82,29.87,29.63,7,1,7,0.45
2012-8-29,75,65,57,66,57,53,98,77,52,29.92,29.77,5,1,5,0.01
2012-8-30,84,70,55,61,57,52,93,66,35,29.98,29.89,8,2,8,0.00
2012-8-31,91,82,68,69,62,56,77,53,32,29.91,29.72,10,3,10,0.00
2012-9-1,79,71,60,69,63,57,90,75,60,30.05,29.75,9,2,9,0.00
2012-9-2,78,68,58,63,60,56,95,78,52,30.06,30.00,7,1,7,0.00
2012-9-3,79,69,57,65,59,55,92,73,58,30.16,30.05,8,2,8,0.00
2012-9-4,76,70,57,74,67,55,99,92,79,30.10,29.82,7,1,7,0.11
2012-9-5,75,72,66,75,72,65,99,98,96,29.82,29.66,10,2,10,0.70
2012-9-6,75,69,61,68,65,61,99,88,72,29.84,29.75,5,1,5,0.01
2012-9-7,86,75,65,75,71,64,99,87,67,29.87,29.79,7,2,7,0.00
2012-9-8,84,77,72,75,72,70,98,86,67,29.85,29.58,15,4,15,0.15
2012-9-9,72,63,56,71,60,55,98,91,76,29.78,29.62,4,0,4,0.01
2012-9-10,72,62,56,59,54,46,99,75,50,29.94,29.76,7,2,7,0.00
2012-9-11,71,61,52,54,51,-9,90,70,48,30.21,29.94,7,1,7,0.00
2012-9-12,76,66,53,61,57,50,93,75,45,30.30,30.21,4,1,4,0.00
2012-9-13,80,68,58,66,61,57,97,79,60,30.31,30.21,7,2,7,0.00
2012-9-14,80,71,61,68,63,57,98,78,52,30.21,30.03,8,2,8,0.00
2012-9-15,72,64,54,67,58,50,99,79,61,30.03,29.89,6,1,6,0.02
2012-9-16,70,60,50,54,52,47,92,74,46,30.02,29.92,5,1,5,0.00
2012-9-17,70,64,52,58,54,49,92,72,50,30.04,29.96,4,1,4,0.00
2012-9-18,77,68,54,68,62,53,96,80,65,30.01,29.71,16,4,16,0.00
2012-9-19,73,64,53,70,57,48,99,80,48,30.10,29.66,12,1,12,0.56
2012-9-20,65,59,49,52,48,46,88,68,52,30.18,30.09,6,2,6,0.56
2012-9-21,64,58,48,57,53,45,94,83,68,30.09,29.97,4,1,4,0.00
2012-9-22,71,63,58,63,59,55,99,88,69,29.97,29.77,5,1,5,0.02
2012-9-23,74,64,53,67,52,40,97,68,33,30.01,29.74,8,1,8,0.00
2012-9-24,66,57,48,47,42,35,82,58,34,30.06,29.99,6,1,6,0.00
2012-9-25,72,64,43,49,45,36,87,52,30,30.14,30.06,12,3,12,0.00
2012-9-26,75,70,62,62,60,49,85,72,55,30.10,29.95,14,4,14,0.00
2012-9-27,68,61,49,62,52,45,91,74,49,30.17,29.93,7,1,7,0.00
2012-9-28,61,58,48,60,50,44,95,78,59,30.18,29.86,9,2,9,0.60
2012-9-29,62,57,55,61,56,53,99,96,93,29.87,29.79,6,1,6,0.22
2012-9-30,60,57,53,59,56,52,99,96,94,29.83,29.66,4,1,4,0.59
2012-10-1,70,62,50,54,50,45,96,65,42,29.86,29.68,11,2,11,0.59
2012-10-2,74,64,56,57,54,48,92,72,42,30.01,29.86,4,1,4,0.71
2012-10-3,67,63,59,66,62,57,99,98,92,30.07,29.99,3,0,3,0.72
2012-10-4,64,61,59,63,60,59,99,99,99,30.08,29.95,3,1,3,0.02
2012-10-5,72,62,59,66,61,58,99,95,70,29.97,29.87,4,0,4,0.00
2012-10-6,77,69,56,66,60,50,96,74,58,29.87,29.66,10,3,10,0.04
2012-10-7,63,54,48,50,43,35,88,67,40,30.00,29.82,4,1,4,0.12
2012-10-8,58,50,43,47,42,36,90,74,47,30.26,29.99,4,0,4,0.04
2012-10-9,58,55,51,50,47,44,85,76,68,30.24,30.06,8,2,8,0.05
2012-10-10,64,60,55,59,55,20,91,86,80,30.06,29.65,7,1,7,0.01
2012-10-11,62,52,43,52,33,21,87,52,23,30.09,29.73,7,2,7,0.01
2012-10-12,59,49,43,42,32,20,78,53,35,30.24,29.96,9,2,9,0.02
2012-10-13,55,46,39,31,19,3,66,39,14,30.42,30.24,8,1,8,0.02
2012-10-14,67,62,42,55,50,31,78,65,50,30.30,29.93,16,4,16,0.07
2012-10-15,72,69,62,60,58,55,78,68,61,29.93,29.60,11,5,11,0.07
2012-10-16,67,52,42,60,33,26,79,51,29,29.77,29.52,10,2,10,0.12
2012-10-17,58,49,37,39,36,29,82,63,38,29.95,29.77,4,1,4,0.12
2012-10-18,64,55,41,49,44,37,86,68,47,30.05,29.94,8,1,8,0.00
2012-10-19,69,65,51,66,58,45,92,79,58,30.02,29.69,10,3,10,0.08
2012-10-20,71,65,56,68,63,54,99,93,75,29.72,29.56,9,2,9,0.07
2012-10-21,64,55,47,53,39,31,92,59,30,29.82,29.67,9,1,9,0.01
2012-10-22,68,58,50,40,36,27,67,45,23,29.93,29.81,8,2,8,0.01
2012-10-23,63,54,47,45,40,32,78,60,33,30.03,29.92,4,1,4,0.00
2012-10-24,55,52,44,47,38,35,80,60,48,30.15,30.03,4,1,4,0.00
2012-10-25,61,50,38,46,41,33,83,72,46,30.25,30.14,4,0,4,0.00
2012-10-26,68,59,43,50,40,28,87,52,24,30.21,30.06,6,1,6,0.00
2012-10-27,64,55,45,52,47,41,86,73,58,30.09,29.93,25,1,25,0.00
2012-10-28,58,55,53,50,48,46,85,77,70,29.89,29.65,10,4,10,0.01
2012-10-29,62,58,54,59,54,49,96,87,80,29.64,29.10,21,7,21,0.63
2012-10-30,68,60,53,59,56,50,96,85,70,29.52,29.25,8,2,8,0.30
2012-10-31,58,52,45,57,48,41,96,85,68,29.51,29.40,4,0,4,0.01
2012-11-1,62,53,46,43,37,32,87,57,35,29.51,29.44,11,2,11,0.01
2012-11-2,57,51,43,41,34,29,79,53,39,29.53,29.45,5,1,5,0.01
2012-11-3,58,50,40,32,27,-10,72,43,10,29.68,29.53,8,2,8,0.01
2012-11-4,58,48,36,33,28,23,67,45,27,29.85,29.68,7,2,7,0.01
2012-11-5,47,40,34,28,17,9,65,40,31,30.04,29.85,8,2,8,0.02
2012-11-6,46,38,29,22,12,2,60,37,16,30.17,30.04,6,2,6,0.07
2012-11-7,46,43,40,35,29,20,80,59,41,30.07,29.60,20,7,20,0.71
2012-11-8,46,43,39,42,38,35,85,84,80,29.62,29.38,17,9,17,0.89
2012-11-9,56,44,37,36,25,8,84,51,18,30.00,29.62,9,2,9,0.00
2012-11-10,57,54,38,31,24,21,56,32,25,30.22,30.00,8,3,8,0.00
2012-11-11,54,54,51,48,24,24,86,31,30,30.42,30.22,3,3,5,0.00
2012-11-12,71,60,49,58,52,47,97,76,54,30.44,30.19,11,2,11,0.00
2012-11-13,64,50,42,59,45,32,88,83,64,30.33,30.09,9,2,9,0.38
2012-11-14,49,44,42,39,26,22,85,50,39,30.43,30.31,11,4,11,0.01
2012-11-15,45,44,42,31,29,25,61,57,48,30.35,30.21,8,4,8,0.00
2012-11-16,54,43,33,30,27,25,75,55,37,30.32,30.18,8,2,8,0.00
2012-11-17,51,43,29,29,25,-18,77,52,37,30.59,30.32,9,2,9,0.00
2012-11-18,55,50,30,32,21,19,81,35,24,30.63,30.53,8,4,8,0.00
2012-11-19,52,47,39,36,33,27,74,57,48,30.53,30.20,6,2,6,0.00
2012-11-20,52,48,44,33,30,-7,62,51,41,30.20,30.05,8,3,8,0.00
2012-11-21,59,51,45,41,36,30,76,58,36,30.16,30.07,8,2,8,0.00
2012-11-22,66,45,32,40,33,26,78,64,34,30.20,30.08,6,2,6,0.00
2012-11-23,60,46,30,41,36,25,86,70,38,29.98,29.59,8,1,8,0.00
2012-11-24,56,44,34,44,16,-6,90,41,10,29.59,29.44,15,3,15,0.00
2012-11-25,48,36,28,14,5,-9,52,29,10,29.81,29.54,15,2,15,0.00
2012-11-26,55,38,27,17,10,-6,62,36,10,30.18,29.80,9,2,9,0.00
2012-11-27,42,36,27,33,25,16,80,66,39,30.26,30.11,4,1,4,12.32
2012-11-28,41,35,26,34,26,19,79,71,62,30.10,30.02,13,3,13,0.05
2012-11-29,49,34,25,22,18,-22,78,54,22,30.21,30.09,49,1,49,0.01
2012-11-30,41,35,32,19,13,9,51,40,29,30.48,30.14,9,3,9,0.01
2012-12-1,45,40,34,37,28,10,74,63,36,30.54,30.42,7,2,7,0.04
2012-12-2,61,54,45,49,45,37,81,71,57,30.41,30.00,11,2,11,0.07
2012-12-3,68,50,33,47,34,27,85,58,24,30.23,30.00,10,1,10,0.07
2012-12-4,58,47,32,46,40,26,87,75,62,30.26,30.05,9,2,9,0.00
2012-12-5,61,49,37,51,29,10,86,48,29,30.05,29.80,13,2,13,0.05
2012-12-6,46,33,23,14,12,4,69,43,18,30.25,30.02,10,2,10,0.05
2012-12-7,50,44,23,39,34,14,84,67,49,30.24,29.98,6,1,6,0.09
2012-12-8,50,46,43,48,43,39,93,90,84,29.98,29.76,7,1,7,0.27
2012-12-9,52,46,40,43,32,24,95,60,39,30.22,29.87,11,3,11,0.32
2012-12-10,61,57,44,60,56,39,99,97,81,30.07,29.42,14,2,14,1.56
2012-12-11,58,44,35,58,33,18,99,68,35,30.05,29.43,6,1,6,1.59
2012-12-12,43,34,28,21,17,6,74,52,23,30.36,30.05,8,1,8,1.59
2012-12-13,54,33,26,34,22,19,81,66,30,30.39,30.23,5,0,5,0.00
2012-12-14,55,37,25,28,18,1,83,52,12,30.23,29.98,13,1,13,0.01
2012-12-15,50,39,29,27,16,3,78,42,18,30.26,30.08,10,3,10,0.01
2012-12-16,38,37,34,20,19,16,50,48,44,30.25,30.15,11,8,11,0.01
2012-12-17,37,37,37,20,20,20,49,49,49,30.15,30.15,11,11,11,0.01
2012-12-18,37,37,37,20,20,20,49,49,49,30.15,30.15,11,11,11,0.01
2012-12-19,45,40,37,29,22,20,56,49,44,31.19,30.15,12,8,12,0.01
2012-12-20,45,41,39,33,28,24,75,59,47,30.76,30.49,14,2,14,0.00
2012-12-21,53,46,39,51,40,19,94,79,27,30.60,29.70,20,5,20,0.60
2012-12-22,41,35,29,32,15,-3,75,47,17,30.20,29.80,14,3,14,0.01
2012-12-23,44,33,24,18,9,-4,68,41,14,30.43,30.20,13,2,13,0.00
2012-12-24,45,33,24,20,11,-8,72,45,12,30.64,30.43,6,1,6,0.00
2012-12-25,38,33,30,34,27,20,85,79,66,30.76,30.53,8,1,8,0.08
2012-12-26,39,33,25,24,20,17,78,60,45,30.87,30.76,5,1,5,0.08
2012-12-27,48,44,38,43,39,32,87,83,79,30.44,29.85,18,9,18,0.53
2012-12-28,41,32,26,25,15,7,74,52,24,30.58,30.14,8,1,8,0.00
2012-12-29,39,32,24,34,24,16,89,72,56,30.58,29.85,11,2,11,0.66
2012-12-30,33,28,22,30,15,1,89,59,38,30.52,29.89,4,0,4,0.00
2012-12-31,35,27,16,22,14,0,71,59,39,30.63,30.34,0,0,0,0.00
2013-1-1,40,34,27,22,9,-2,64,36,22,30.44,30.29,11,2,11,0.06